createdAt,value
2019-03-27T00:01:52.953Z,0.00
2019-03-27T00:04:22.774Z,0.00
2019-03-27T00:06:52.611Z,0.00
2019-03-27T00:09:22.351Z,0.00
2019-03-27T00:11:52.187Z,0.00
2019-03-27T00:14:22.009Z,0.00
2019-03-27T00:16:51.835Z,0.00
2019-03-27T00:19:22.391Z,0.00
2019-03-27T00:21:52.129Z,0.00
2019-03-27T00:24:21.957Z,0.00
2019-03-27T00:26:53.357Z,0.00
2019-03-27T00:29:23.163Z,0.00
2019-03-27T00:31:52.930Z,0.00
2019-03-27T00:34:22.709Z,0.00
2019-03-27T00:36:52.485Z,0.00
2019-03-27T00:39:22.218Z,0.00
2019-03-27T00:41:51.969Z,0.00
2019-03-27T00:44:21.719Z,0.00
2019-03-27T00:46:51.427Z,0.00
2019-03-27T00:49:21.183Z,0.00
2019-03-27T00:51:50.986Z,0.00
2019-03-27T00:54:20.825Z,0.00
2019-03-27T00:56:50.852Z,0.00
2019-03-27T00:59:20.684Z,0.00
2019-03-27T01:01:50.427Z,0.00
2019-03-27T01:04:20.195Z,0.00
2019-03-27T01:06:51.090Z,0.00
2019-03-27T01:09:21.081Z,0.00
2019-03-27T01:11:50.848Z,0.00
2019-03-27T01:14:20.698Z,0.00
2019-03-27T01:16:50.220Z,0.00
2019-03-27T01:19:19.900Z,0.00
2019-03-27T01:21:49.759Z,0.00
2019-03-27T01:24:19.895Z,0.00
2019-03-27T01:26:49.618Z,0.00
2019-03-27T01:29:19.464Z,0.00
2019-03-27T01:31:49.199Z,0.00
2019-03-27T01:34:18.972Z,0.00
2019-03-27T01:36:48.824Z,0.00
2019-03-27T01:39:18.676Z,0.00
2019-03-27T01:41:48.322Z,0.00
2019-03-27T01:44:18.131Z,0.00
2019-03-27T01:46:48.022Z,0.00
2019-03-27T01:49:17.762Z,0.00
2019-03-27T01:51:47.548Z,0.00
2019-03-27T01:54:17.320Z,0.00
2019-03-27T01:56:47.094Z,0.00
2019-03-27T01:59:16.879Z,0.00
2019-03-27T02:01:46.620Z,0.00
2019-03-27T02:04:16.383Z,0.00
2019-03-27T02:06:46.107Z,0.00
2019-03-27T02:09:15.819Z,0.00
2019-03-27T02:11:45.561Z,0.00
2019-03-27T02:14:15.388Z,0.00
2019-03-27T02:16:45.067Z,0.00
2019-03-27T02:19:14.759Z,0.00
2019-03-27T02:21:44.472Z,0.00
2019-03-27T02:24:14.145Z,0.00
2019-03-27T02:26:43.935Z,0.00
2019-03-27T02:29:13.651Z,0.00
2019-03-27T02:31:43.333Z,0.00
2019-03-27T02:34:13.082Z,0.00
2019-03-27T02:36:42.904Z,0.00
2019-03-27T02:39:12.665Z,0.00
2019-03-27T02:41:42.380Z,0.00
2019-03-27T02:44:12.139Z,0.00
2019-03-27T02:46:41.847Z,0.00
2019-03-27T02:49:11.504Z,0.00
2019-03-27T02:51:41.477Z,0.00
2019-03-27T02:54:11.173Z,0.00
2019-03-27T02:56:40.853Z,0.00
2019-03-27T02:59:10.574Z,0.00
2019-03-27T03:01:40.644Z,0.00
2019-03-27T03:04:11.006Z,0.00
2019-03-27T03:06:40.761Z,0.00
2019-03-27T03:09:10.431Z,0.00
2019-03-27T03:11:40.086Z,0.00
2019-03-27T03:14:09.889Z,0.00
2019-03-27T03:16:42.699Z,0.00
2019-03-27T03:19:11.040Z,0.00
2019-03-27T03:21:40.859Z,0.00
2019-03-27T03:24:10.648Z,0.00
2019-03-27T03:26:40.380Z,0.00
2019-03-27T03:29:10.187Z,0.00
2019-03-27T03:31:39.849Z,0.00
2019-03-27T03:34:09.545Z,0.00
2019-03-27T03:36:39.258Z,0.00
2019-03-27T03:39:09.330Z,0.00
2019-03-27T03:41:39.037Z,0.00
2019-03-27T03:44:08.835Z,0.00
2019-03-27T03:46:38.511Z,0.00
2019-03-27T03:49:08.242Z,0.00
2019-03-27T03:51:38.015Z,0.00
2019-03-27T03:54:07.698Z,0.00
2019-03-27T03:56:38.462Z,0.00
2019-03-27T03:59:09.592Z,0.00
2019-03-27T04:01:40.928Z,0.00
2019-03-27T04:04:11.408Z,0.00
2019-03-27T04:06:41.150Z,0.00
2019-03-27T04:09:10.922Z,0.00
2019-03-27T04:11:40.656Z,0.00
2019-03-27T04:14:10.435Z,0.00
2019-03-27T04:16:40.124Z,0.00
2019-03-27T04:19:09.973Z,0.00
2019-03-27T04:21:39.756Z,0.00
2019-03-27T04:24:09.446Z,0.00
2019-03-27T04:26:39.218Z,0.00
2019-03-27T04:29:09.065Z,0.00
2019-03-27T04:31:38.841Z,0.00
2019-03-27T04:34:08.656Z,0.00
2019-03-27T04:36:38.440Z,0.00
2019-03-27T04:39:08.123Z,0.00
2019-03-27T04:41:38.249Z,0.00
2019-03-27T04:44:07.976Z,0.00
2019-03-27T04:46:37.755Z,0.00
2019-03-27T04:49:07.922Z,0.00
2019-03-27T04:51:37.829Z,0.00
2019-03-27T04:54:07.724Z,0.00
2019-03-27T04:56:37.538Z,0.00
2019-03-27T04:59:07.259Z,0.00
2019-03-27T05:01:37.028Z,0.00
2019-03-27T05:04:07.939Z,0.00
2019-03-27T05:06:37.786Z,0.00
2019-03-27T05:09:07.579Z,0.00
2019-03-27T05:11:37.320Z,0.00
2019-03-27T05:14:07.171Z,0.00
2019-03-27T05:16:36.937Z,0.00
2019-03-27T05:19:06.719Z,0.00
2019-03-27T05:21:36.536Z,0.00
2019-03-27T05:24:06.254Z,0.00
2019-03-27T05:26:35.933Z,0.00
2019-03-27T05:29:05.729Z,0.00
2019-03-27T05:31:35.527Z,0.00
2019-03-27T05:34:05.332Z,0.00
2019-03-27T05:36:35.303Z,0.00
2019-03-27T05:39:06.521Z,0.00
2019-03-27T05:41:36.321Z,0.00
2019-03-27T05:44:06.058Z,0.00
2019-03-27T05:46:35.813Z,0.00
2019-03-27T05:49:05.501Z,0.00
2019-03-27T05:51:35.326Z,0.00
2019-03-27T05:54:05.113Z,0.00
2019-03-27T05:56:34.967Z,0.00
2019-03-27T05:59:04.809Z,0.00
2019-03-27T06:01:34.519Z,0.00
2019-03-27T06:04:04.264Z,0.00
2019-03-27T06:06:34.063Z,0.00
2019-03-27T06:09:04.545Z,0.00
2019-03-27T06:11:34.307Z,0.00
2019-03-27T06:14:04.069Z,0.00
2019-03-27T06:16:33.821Z,0.00
2019-03-27T06:19:03.587Z,0.00
2019-03-27T06:21:33.455Z,0.00
2019-03-27T06:24:03.249Z,0.00
2019-03-27T06:26:33.033Z,0.00
2019-03-27T06:29:02.890Z,7.00
2019-03-27T06:31:32.713Z,18.46
2019-03-27T06:34:02.546Z,33.05
2019-03-27T06:36:32.382Z,44.88
2019-03-27T06:39:02.157Z,55.70
2019-03-27T06:41:31.917Z,100.00
2019-03-27T06:44:01.819Z,100.00
2019-03-27T06:46:31.881Z,100.00
2019-03-27T06:49:01.661Z,100.00
2019-03-27T06:51:39.858Z,100.00
2019-03-27T06:54:02.963Z,100.00
2019-03-27T06:56:32.787Z,100.00
2019-03-27T06:59:02.551Z,100.00
2019-03-27T07:01:32.346Z,100.00
2019-03-27T07:04:10.426Z,100.00
2019-03-27T07:06:33.583Z,100.00
2019-03-27T07:09:04.652Z,100.00
2019-03-27T07:11:34.422Z,100.00
2019-03-27T07:14:04.139Z,100.00
2019-03-27T07:16:33.975Z,100.00
2019-03-27T07:19:03.763Z,100.00
2019-03-27T07:21:33.533Z,100.00
2019-03-27T07:24:04.363Z,100.00
2019-03-27T07:26:34.178Z,100.00
2019-03-27T07:29:03.857Z,100.00
2019-03-27T07:31:33.618Z,100.00
2019-03-27T07:34:04.885Z,100.00
2019-03-27T07:36:34.743Z,100.00
2019-03-27T07:39:11.252Z,100.00
2019-03-27T07:41:37.993Z,100.00
2019-03-27T07:44:07.750Z,100.00
2019-03-27T07:46:37.560Z,100.00
2019-03-27T07:49:07.272Z,100.00
2019-03-27T07:51:37.068Z,100.00
2019-03-27T07:54:06.846Z,100.00
2019-03-27T07:56:36.876Z,100.00
2019-03-27T07:59:06.745Z,100.00
2019-03-27T08:01:36.602Z,100.00
2019-03-27T08:04:06.414Z,100.00
2019-03-27T08:06:36.362Z,100.00
2019-03-27T08:09:07.653Z,100.00
2019-03-27T08:11:37.523Z,0.00
2019-03-27T08:14:11.685Z,0.00
2019-03-27T08:16:41.551Z,0.00
2019-03-27T08:19:11.330Z,0.00
2019-03-27T08:21:41.233Z,100.00
2019-03-27T08:24:10.987Z,100.00
2019-03-27T08:26:40.684Z,100.00
2019-03-27T08:29:10.508Z,100.00
2019-03-27T08:31:40.295Z,100.00
2019-03-27T08:34:10.084Z,100.00
2019-03-27T08:36:39.864Z,100.00
2019-03-27T08:39:10.848Z,100.00
2019-03-27T08:41:40.928Z,100.00
2019-03-27T08:44:10.767Z,0.00
2019-03-27T08:46:40.620Z,0.00
2019-03-27T08:49:21.088Z,0.00
2019-03-27T08:51:41.943Z,0.00
2019-03-27T08:54:11.675Z,0.00
2019-03-27T08:56:41.666Z,0.00
2019-03-27T08:59:11.469Z,0.00
2019-03-27T09:01:41.145Z,0.00
2019-03-27T09:04:10.986Z,0.00
2019-03-27T09:06:40.807Z,0.00
2019-03-27T09:09:10.502Z,0.00
2019-03-27T09:11:40.629Z,0.00
2019-03-27T09:14:10.326Z,0.00
2019-03-27T09:16:40.168Z,0.00
2019-03-27T09:19:09.749Z,0.00
2019-03-27T09:21:39.562Z,0.00
2019-03-27T09:24:09.218Z,0.00
2019-03-27T09:26:38.902Z,0.00
2019-03-27T09:29:08.694Z,0.00
2019-03-27T09:31:44.871Z,0.00
2019-03-27T09:34:10.527Z,0.00
2019-03-27T09:36:40.914Z,0.00
2019-03-27T09:39:10.878Z,0.00
2019-03-27T09:41:40.713Z,0.00
2019-03-27T09:44:10.677Z,0.00
2019-03-27T09:46:40.454Z,0.00
2019-03-27T09:49:11.737Z,0.00
2019-03-27T09:51:42.109Z,0.00
2019-03-27T09:54:11.805Z,0.00
2019-03-27T09:56:42.760Z,0.00
2019-03-27T09:59:12.302Z,0.00
2019-03-27T10:01:43.111Z,0.00
2019-03-27T10:04:12.752Z,0.00
2019-03-27T10:06:42.467Z,0.00
2019-03-27T10:09:12.279Z,0.00
2019-03-27T10:11:41.935Z,0.00
2019-03-27T10:14:11.741Z,0.00
2019-03-27T10:16:41.523Z,0.00
2019-03-27T10:19:11.203Z,0.00
2019-03-27T10:21:41.003Z,0.00
2019-03-27T10:24:10.704Z,0.00
2019-03-27T10:26:42.624Z,0.00
2019-03-27T10:29:12.184Z,0.00
2019-03-27T10:31:41.964Z,0.00
2019-03-27T10:34:11.912Z,0.00
2019-03-27T10:36:41.712Z,0.00
2019-03-27T10:39:12.085Z,0.00
2019-03-27T10:41:41.738Z,0.00
2019-03-27T10:44:11.568Z,0.00
2019-03-27T10:46:41.351Z,0.00
2019-03-27T10:49:11.115Z,0.00
2019-03-27T10:51:41.036Z,0.00
2019-03-27T10:54:11.751Z,0.00
2019-03-27T10:56:42.473Z,0.00
2019-03-27T10:59:12.433Z,0.00
2019-03-27T11:01:42.171Z,0.00
2019-03-27T11:04:11.849Z,0.00
2019-03-27T11:06:42.643Z,0.00
2019-03-27T11:09:12.392Z,0.00
2019-03-27T11:11:42.139Z,0.00
2019-03-27T11:14:11.799Z,0.00
2019-03-27T11:16:42.070Z,0.00
2019-03-27T11:19:11.821Z,0.00
2019-03-27T11:21:44.309Z,0.00
2019-03-27T11:24:15.742Z,0.00
2019-03-27T11:26:47.015Z,0.00
2019-03-27T11:29:16.666Z,0.00
2019-03-27T11:31:46.369Z,0.00
2019-03-27T11:34:16.172Z,0.00
2019-03-27T11:36:45.882Z,0.00
2019-03-27T11:39:15.663Z,0.00
2019-03-27T11:41:46.887Z,0.00
2019-03-27T11:44:16.551Z,0.00
2019-03-27T11:46:46.252Z,0.00
2019-03-27T11:49:15.924Z,0.00
2019-03-27T11:51:45.801Z,0.00
2019-03-27T11:54:17.223Z,0.00
2019-03-27T11:56:46.950Z,0.00
2019-03-27T11:59:16.647Z,0.00
2019-03-27T12:01:47.089Z,0.00
2019-03-27T12:04:17.720Z,0.00
2019-03-27T12:06:48.392Z,0.00
2019-03-27T12:09:18.246Z,0.00
2019-03-27T12:11:48.004Z,0.00
2019-03-27T12:14:17.836Z,0.00
2019-03-27T12:16:50.139Z,0.00
2019-03-27T12:19:20.054Z,0.00
2019-03-27T12:21:49.794Z,100.00
2019-03-27T12:24:20.465Z,100.00
2019-03-27T12:26:50.264Z,100.00
2019-03-27T12:29:20.049Z,100.00
2019-03-27T12:31:49.805Z,100.00
2019-03-27T12:34:19.618Z,100.00
2019-03-27T12:36:50.364Z,100.00
2019-03-27T12:39:20.727Z,100.00
2019-03-27T12:41:51.588Z,100.00
2019-03-27T12:44:21.284Z,100.00
2019-03-27T12:46:51.991Z,0.00
2019-03-27T12:49:21.890Z,0.00
2019-03-27T12:51:51.614Z,0.00
2019-03-27T12:54:21.406Z,0.00
2019-03-27T12:56:52.228Z,0.00
2019-03-27T12:59:22.893Z,0.00
2019-03-27T13:01:52.863Z,0.00
2019-03-27T13:04:22.605Z,0.00
2019-03-27T13:06:52.476Z,0.00
2019-03-27T13:09:22.379Z,0.00
2019-03-27T13:11:52.217Z,0.00
2019-03-27T13:14:21.981Z,0.00
2019-03-27T13:16:52.440Z,0.00
2019-03-27T13:19:22.483Z,0.00
2019-03-27T13:21:52.302Z,0.00
2019-03-27T13:24:23.563Z,0.00
2019-03-27T13:26:54.513Z,0.00
2019-03-27T13:29:26.861Z,0.00
2019-03-27T13:31:58.993Z,0.00
2019-03-27T13:34:28.675Z,0.00
2019-03-27T13:37:01.095Z,0.00
2019-03-27T13:39:30.937Z,0.00
2019-03-27T13:42:01.485Z,0.00
2019-03-27T13:44:37.034Z,0.00
2019-03-27T13:47:02.885Z,0.00
2019-03-27T13:49:33.735Z,0.00
2019-03-27T13:52:05.024Z,0.00
2019-03-27T13:54:34.685Z,0.00
2019-03-27T13:57:04.542Z,0.00
2019-03-27T13:59:34.359Z,0.00
2019-03-27T14:02:04.398Z,0.00
2019-03-27T14:04:34.145Z,0.00
2019-03-27T14:07:04.433Z,0.00
2019-03-27T14:09:34.187Z,0.00
2019-03-27T14:12:04.032Z,0.00
2019-03-27T14:14:33.833Z,0.00
2019-03-27T14:17:03.585Z,0.00
2019-03-27T14:19:34.993Z,0.00
2019-03-27T14:22:04.806Z,0.00
2019-03-27T14:24:34.568Z,0.00
2019-03-27T14:27:04.395Z,0.00
2019-03-27T14:29:34.179Z,0.00
2019-03-27T14:32:03.931Z,0.00
2019-03-27T14:34:34.678Z,0.00
2019-03-27T14:37:04.600Z,0.00
2019-03-27T14:39:34.357Z,0.00
2019-03-27T14:42:04.510Z,0.00
2019-03-27T14:44:36.307Z,0.00
2019-03-27T14:47:05.976Z,0.00
2019-03-27T14:49:37.711Z,0.00
2019-03-27T14:52:08.439Z,0.00
2019-03-27T14:54:41.468Z,0.00
2019-03-27T14:57:11.251Z,0.00
2019-03-27T14:59:41.065Z,0.00
2019-03-27T15:02:10.890Z,0.00
2019-03-27T15:04:40.666Z,0.00
2019-03-27T15:07:11.977Z,0.00
2019-03-27T15:09:41.786Z,0.00
2019-03-27T15:12:11.681Z,0.00
2019-03-27T15:14:41.460Z,0.00
2019-03-27T15:17:11.299Z,0.00
2019-03-27T15:19:41.116Z,0.00
2019-03-27T15:22:21.674Z,0.00
2019-03-27T15:24:42.412Z,0.00
2019-03-27T15:27:12.172Z,0.00
2019-03-27T15:29:41.955Z,0.00
2019-03-27T15:32:11.867Z,0.00
2019-03-27T15:34:41.620Z,0.00
2019-03-27T15:37:11.752Z,0.00
2019-03-27T15:39:41.526Z,0.00
2019-03-27T15:42:11.640Z,0.00
2019-03-27T15:44:41.381Z,0.00
2019-03-27T15:47:11.171Z,0.00
2019-03-27T15:49:40.961Z,0.00
2019-03-27T15:52:10.808Z,0.00
2019-03-27T15:54:40.690Z,0.00
2019-03-27T15:57:10.552Z,100.00
2019-03-27T15:59:40.420Z,100.00
2019-03-27T16:02:10.424Z,100.00
2019-03-27T16:04:40.344Z,100.00
2019-03-27T16:07:10.225Z,100.00
2019-03-27T16:09:39.977Z,100.00
2019-03-27T16:12:10.245Z,100.00
2019-03-27T16:14:40.070Z,100.00
2019-03-27T16:17:13.514Z,100.00
2019-03-27T16:19:41.437Z,100.00
2019-03-27T16:22:11.286Z,100.00
2019-03-27T16:24:41.057Z,100.00
2019-03-27T16:27:10.954Z,100.00
2019-03-27T16:29:40.984Z,100.00
2019-03-27T16:32:11.992Z,100.00
2019-03-27T16:34:41.964Z,100.00
2019-03-27T16:37:11.751Z,100.00
2019-03-27T16:39:41.628Z,100.00
2019-03-27T16:42:11.582Z,100.00
2019-03-27T16:44:41.355Z,100.00
2019-03-27T16:47:12.938Z,100.00
2019-03-27T16:49:43.712Z,100.00
2019-03-27T16:52:13.633Z,100.00
2019-03-27T16:54:43.391Z,0.00
2019-03-27T16:57:13.479Z,0.00
2019-03-27T16:59:43.340Z,0.00
2019-03-27T17:02:13.203Z,0.00
2019-03-27T17:04:42.980Z,0.00
2019-03-27T17:07:12.801Z,0.00
2019-03-27T17:09:42.708Z,0.00
2019-03-27T17:12:12.584Z,0.00
2019-03-27T17:14:42.363Z,0.00
2019-03-27T17:17:12.261Z,0.00
2019-03-27T17:19:43.551Z,0.00
2019-03-27T17:22:19.317Z,100.00
2019-03-27T17:24:44.947Z,100.00
2019-03-27T17:27:15.132Z,100.00
2019-03-27T17:29:45.061Z,100.00
2019-03-27T17:32:14.896Z,0.00
2019-03-27T17:34:44.717Z,0.00
2019-03-27T17:37:14.499Z,0.00
2019-03-27T17:39:44.343Z,0.00
2019-03-27T17:42:14.139Z,0.00
2019-03-27T17:44:43.861Z,0.00
2019-03-27T17:47:13.696Z,100.00
2019-03-27T17:49:43.516Z,100.00
2019-03-27T17:52:13.358Z,100.00
2019-03-27T17:54:43.125Z,100.00
2019-03-27T17:57:13.051Z,100.00
2019-03-27T17:59:42.928Z,100.00
2019-03-27T18:02:12.974Z,100.00
2019-03-27T18:04:43.451Z,100.00
2019-03-27T18:07:13.345Z,100.00
2019-03-27T18:09:43.455Z,100.00
2019-03-27T18:12:13.349Z,100.00
2019-03-27T18:14:43.335Z,100.00
2019-03-27T18:17:13.143Z,100.00
2019-03-27T18:19:43.001Z,100.00
2019-03-27T18:22:13.219Z,100.00
2019-03-27T18:24:43.029Z,100.00
2019-03-27T18:27:13.157Z,100.00
2019-03-27T18:29:43.933Z,100.00
2019-03-27T18:32:13.936Z,100.00
2019-03-27T18:34:43.804Z,100.00
2019-03-27T18:37:13.709Z,100.00
2019-03-27T18:39:43.555Z,100.00
2019-03-27T18:42:13.591Z,100.00
2019-03-27T18:44:43.619Z,100.00
2019-03-27T18:47:15.170Z,100.00
2019-03-27T18:49:45.469Z,100.00
2019-03-27T18:52:15.685Z,100.00
2019-03-27T18:54:45.735Z,100.00
2019-03-27T18:57:16.099Z,100.00
2019-03-27T18:59:46.772Z,100.00
2019-03-27T19:02:17.012Z,100.00
2019-03-27T19:04:46.794Z,100.00
2019-03-27T19:07:16.621Z,100.00
2019-03-27T19:09:46.630Z,100.00
2019-03-27T19:12:16.568Z,100.00
2019-03-27T19:14:46.592Z,100.00
2019-03-27T19:17:18.783Z,100.00
2019-03-27T19:19:48.648Z,100.00
2019-03-27T19:22:19.732Z,100.00
2019-03-27T19:24:49.639Z,100.00
2019-03-27T19:27:19.527Z,100.00
2019-03-27T19:29:49.253Z,100.00
2019-03-27T19:32:19.168Z,100.00
2019-03-27T19:34:51.125Z,100.00
2019-03-27T19:37:20.563Z,100.00
2019-03-27T19:39:50.416Z,100.00
2019-03-27T19:42:20.387Z,100.00
2019-03-27T19:44:51.019Z,100.00
2019-03-27T19:47:20.865Z,100.00
2019-03-27T19:49:50.757Z,100.00
2019-03-27T19:52:20.583Z,100.00
2019-03-27T19:54:50.421Z,100.00
2019-03-27T19:57:20.259Z,100.00
2019-03-27T19:59:50.181Z,100.00
2019-03-27T20:02:20.057Z,100.00
2019-03-27T20:04:49.851Z,100.00
2019-03-27T20:07:20.136Z,100.00
2019-03-27T20:09:50.453Z,100.00
2019-03-27T20:12:21.219Z,100.00
2019-03-27T20:14:51.069Z,100.00
2019-03-27T20:17:21.098Z,100.00
2019-03-27T20:19:50.995Z,100.00
2019-03-27T20:22:20.957Z,100.00
2019-03-27T20:24:51.101Z,100.00
2019-03-27T20:27:20.914Z,100.00
2019-03-27T20:29:50.895Z,100.00
2019-03-27T20:32:20.713Z,100.00
2019-03-27T20:34:50.583Z,100.00
2019-03-27T20:37:20.432Z,100.00
2019-03-27T20:39:50.691Z,100.00
2019-03-27T20:42:20.891Z,100.00
2019-03-27T20:44:50.772Z,100.00
2019-03-27T20:47:20.628Z,100.00
2019-03-27T20:49:50.432Z,100.00
2019-03-27T20:52:20.635Z,100.00
2019-03-27T20:54:55.318Z,100.00
2019-03-27T20:57:24.187Z,100.00
2019-03-27T20:59:55.596Z,96.23
2019-03-27T21:02:26.319Z,87.85
2019-03-27T21:04:56.074Z,82.61
2019-03-27T21:07:26.114Z,64.34
2019-03-27T21:09:55.831Z,62.04
2019-03-27T21:12:25.807Z,67.89
2019-03-27T21:14:57.271Z,66.83
2019-03-27T21:17:27.319Z,65.89
2019-03-27T21:19:57.102Z,58.30
2019-03-27T21:22:26.896Z,54.89
2019-03-27T21:25:08.147Z,45.32
2019-03-27T21:27:28.099Z,37.82
2019-03-27T21:29:59.352Z,45.70
2019-03-27T21:32:29.092Z,54.45
2019-03-27T21:34:59.107Z,46.88
2019-03-27T21:37:28.849Z,44.88
2019-03-27T21:39:58.970Z,40.54
2019-03-27T21:42:28.675Z,44.45
2019-03-27T21:44:58.417Z,34.60
2019-03-27T21:47:28.150Z,26.74
2019-03-27T21:49:57.944Z,23.52
2019-03-27T21:52:28.070Z,29.83
2019-03-27T21:54:57.812Z,14.45
2019-03-27T21:57:27.606Z,4.96
2019-03-27T21:59:57.334Z,2.37
2019-03-27T22:02:27.208Z,0.00
2019-03-27T22:04:56.996Z,0.00
2019-03-27T22:07:26.674Z,0.00
2019-03-27T22:09:56.409Z,0.00
2019-03-27T22:12:26.077Z,0.00
2019-03-27T22:14:55.743Z,0.00
2019-03-27T22:17:25.450Z,0.00
2019-03-27T22:19:55.550Z,0.00
2019-03-27T22:22:25.274Z,0.00
2019-03-27T22:24:54.950Z,0.00
2019-03-27T22:27:24.714Z,0.00
2019-03-27T22:29:54.509Z,0.00
2019-03-27T22:32:24.271Z,0.00
2019-03-27T22:34:53.988Z,0.00
2019-03-27T22:37:23.790Z,0.00
2019-03-27T22:39:53.523Z,0.00
2019-03-27T22:42:23.244Z,0.00
2019-03-27T22:44:52.978Z,0.00
2019-03-27T22:47:22.758Z,0.00
2019-03-27T22:49:52.540Z,0.00
2019-03-27T22:52:22.358Z,0.00
2019-03-27T22:54:52.023Z,0.00
2019-03-27T22:57:21.742Z,0.00
2019-03-27T22:59:51.420Z,0.00
2019-03-27T23:02:21.191Z,0.00
2019-03-27T23:04:50.927Z,0.00
2019-03-27T23:07:20.680Z,0.00
2019-03-27T23:09:50.444Z,0.00
2019-03-27T23:12:20.254Z,0.00
2019-03-27T23:14:50.022Z,0.00
2019-03-27T23:17:19.735Z,0.00
2019-03-27T23:19:51.287Z,0.00
2019-03-27T23:22:20.940Z,0.00
2019-03-27T23:24:50.657Z,0.00
2019-03-27T23:27:20.347Z,0.00
2019-03-27T23:29:50.048Z,0.00
2019-03-27T23:32:19.732Z,0.00
2019-03-27T23:34:49.427Z,0.00
2019-03-27T23:37:19.226Z,0.00
2019-03-27T23:39:48.905Z,0.00
2019-03-27T23:42:18.619Z,0.00
2019-03-27T23:44:48.363Z,0.00
2019-03-27T23:47:18.027Z,0.00
2019-03-27T23:49:47.695Z,0.00
2019-03-27T23:52:17.509Z,0.00
2019-03-27T23:54:47.297Z,0.00
2019-03-27T23:57:17.557Z,0.00
2019-03-27T23:59:47.733Z,0.00
